STATION HISTORICAL DATA FROM WUNDERGROUND.COM FOR HIGH PARK VILLAGE,TORONTO,ON,CANADA
 
Daily Summary for March 26, 2019 Units:  Metric    English   Both
Next Day »
Daily Weekly Monthly Yearly Custom
  Current: High: Low: Average:
Temperature: 3.8 °C 3.8 °C -3.6 °C -1.4 °C
Dew Point: -9.9 °C -9 °C -16.7 °C -11.4 °C
Humidity: 36% 66% 25% 49%
Wind Speed: 6.8km/h 11.1km/h 0km/h 3.7km/h
Wind Gust: 3.1km/h 7.7km/h - -
WindSouth - - WNW
Pressure: 1029.7 hPa 1030.7 hPa 1024.3 hPa -
Precipitation: 0 mm      
Historical Graphs
 
 
Tabular Data for March 26, 2019
Time Temperature Dew Point Pressure Wind Wind Speed Wind Gust Humidity Rainfall Rate (Hourly) Solar Conditions
00:04 -2.1 °C -11.4 °C 1024.3 hPa NW 9.3 km/h 6.4 km/h 49% 0 mm 0.00 W/m2 CLR
00:09 -2.1 °C -11.4 °C 1024.3 hPa WNW 9.3 km/h 7.1 km/h 49% 0 mm 0.00 W/m2 CLR
00:14 -2.1 °C -11.4 °C 1024.3 hPa South 3.7 km/h 3.7 km/h 49% 0 mm 0.00 W/m2 CLR
00:19 -2.2 °C -11.2 °C 1024.3 hPa North 6.8 km/h 6.9 km/h 50% 0 mm 0.00 W/m2 CLR
00:24 -2.2 °C -11.2 °C 1024.3 hPa WNW 9.3 km/h 4.5 km/h 50% 0 mm 0.00 W/m2 CLR
00:29 -2.2 °C -11.2 °C 1024.6 hPa NNW 11.1 km/h 6.8 km/h 50% 0 mm 0.00 W/m2 CLR
00:34 -2.2 °C -11.2 °C 1024.6 hPa WNW 2.3 km/h 1.4 km/h 50% 0 mm 0.00 W/m2 CLR
00:39 -2.3 °C -11.1 °C 1024.6 hPa NW 3.7 km/h 3.1 km/h 51% 0 mm 0.00 W/m2 CLR
00:44 -2.3 °C -11.1 °C 1024.6 hPa NNW 2.3 km/h 1 km/h 51% 0 mm 0.00 W/m2 CLR
00:49 -2.3 °C -10.8 °C 1024.6 hPa NW 4.5 km/h 1.4 km/h 52% 0 mm 0.00 W/m2 CLR
00:54 -2.3 °C -10.8 °C 1024.6 hPa NW 3.7 km/h 1.3 km/h 52% 0 mm 0.00 W/m2 CLR
00:59 -2.3 °C -10.8 °C 1024.6 hPa NNW 2.3 km/h 0.6 km/h 52% 0 mm 0.00 W/m2 CLR
01:04 -2.3 °C -10.8 °C 1024.6 hPa NNW 1.9 km/h 1 km/h 52% 0 mm 0.00 W/m2 CLR
01:09 -2.3 °C -10.8 °C 1024.6 hPa NNW 1.9 km/h 1 km/h 52% 0 mm 0.00 W/m2
01:14 -2.3 °C -10.6 °C 1024.6 hPa Calm   0.6 km/h 53% 0 mm 0.00 W/m2
01:19 -2.3 °C -10.6 °C 1024.6 hPa Calm     53% 0 mm 0.00 W/m2
01:24 -2.4 °C -10.7 °C 1024.6 hPa NNW 1.9 km/h 0.2 km/h 53% 0 mm 0.00 W/m2
01:29 -2.4 °C -10.4 °C 1024.6 hPa NNW 1.9 km/h 0.5 km/h 54% 0 mm 0.00 W/m2
01:31 -0.8 °C -13 °C 1030 hPa Calm   1.6 km/h 39% 0 mm 19.00 W/m2 OVC
01:34 -2.4 °C -10.5 °C 1024.6 hPa NNW 1.9 km/h 0.8 km/h 54% 0 mm 0.00 W/m2
01:36 -0.6 °C -13.2 °C 1030 hPa Calm     38% 0 mm 20.00 W/m2 OVC
01:39 -2.4 °C -10.5 °C 1024.6 hPa NNW 1.9 km/h 0.2 km/h 54% 0 mm 0.00 W/m2
01:44 -2.4 °C -10.5 °C 1024.6 hPa NW 3.7 km/h 0.3 km/h 54% 0 mm 0.00 W/m2
01:49 -2.4 °C -10.2 °C 1024.6 hPa NW 1.9 km/h   55% 0 mm 0.00 W/m2
01:54 -2.4 °C -10.2 °C 1024.6 hPa NW 2.3 km/h 0.5 km/h 55% 0 mm 0.00 W/m2
01:59 -2.5 °C -10.3 °C 1024.6 hPa NNW 4.5 km/h 2.3 km/h 55% 0 mm 0.00 W/m2
02:04 -2.5 °C -10.3 °C 1024.9 hPa NNW 2.3 km/h 1 km/h 55% 0 mm 0.00 W/m2
02:09 -2.6 °C -10.1 °C 1024.9 hPa NNW 7.4 km/h 2.9 km/h 56% 0 mm 0.00 W/m2
02:14 -2.6 °C -10.2 °C 1024.9 hPa NNW 3.7 km/h 2.6 km/h 56% 0 mm 0.00 W/m2
02:19 -2.7 °C -10.2 °C 1024.9 hPa NNW 3.7 km/h 1.9 km/h 56% 0 mm 0.00 W/m2
02:24 -2.7 °C -10.1 °C 1024.9 hPa North 3.7 km/h 1.9 km/h 57% 0 mm 0.00 W/m2
02:29 -2.8 °C -10.1 °C 1024.9 hPa NNW 7.4 km/h 2.7 km/h 57% 0 mm 0.00 W/m2
02:34 -2.8 °C -9.9 °C 1024.9 hPa NNW 3.7 km/h 1 km/h 58% 0 mm 0.00 W/m2
02:39 -2.9 °C -10 °C 1024.9 hPa NW 7.4 km/h 5.8 km/h 58% 0 mm 0.00 W/m2
02:44 -2.9 °C -10.1 °C 1024.9 hPa NW 3.7 km/h 2.4 km/h 58% 0 mm 0.00 W/m2
02:49 -3 °C -9.9 °C 1024.9 hPa North 3.7 km/h 2.9 km/h 59% 0 mm 0.00 W/m2
02:54 -3 °C -9.9 °C 1024.9 hPa NNW 3.7 km/h 2.1 km/h 59% 0 mm 0.00 W/m2
02:59 -3.1 °C -9.9 °C 1024.9 hPa NNW 1.9 km/h 2.6 km/h 59% 0 mm 0.00 W/m2
03:04 -3.1 °C -9.9 °C 1024.9 hPa NNW 4.5 km/h 3.4 km/h 59% 0 mm 0.00 W/m2
03:09 -3.1 °C -9.7 °C 1024.9 hPa NNW 1.9 km/h 1.1 km/h 60% 0 mm 0.00 W/m2
03:14 -3.1 °C -9.8 °C 1024.9 hPa NNW 3.7 km/h 1.6 km/h 60% 0 mm 0.00 W/m2
03:19 -3.1 °C -9.8 °C 1024.9 hPa NW 4.5 km/h 3.4 km/h 60% 0 mm 0.00 W/m2
03:24 -3.1 °C -9.8 °C 1024.9 hPa NNW 4.5 km/h 3.1 km/h 60% 0 mm 0.00 W/m2
03:29 -3.2 °C -9.6 °C 1024.9 hPa NNW 3.7 km/h 1.8 km/h 61% 0 mm 0.00 W/m2
03:34 -3.2 °C -9.6 °C 1024.9 hPa NNW 7.4 km/h 4.7 km/h 61% 0 mm 0.00 W/m2
03:39 -3.2 °C -9.7 °C 1024.9 hPa NNW 7.4 km/h 4.8 km/h 61% 0 mm 0.00 W/m2
03:44 -3.2 °C -9.7 °C 1024.9 hPa NW 7.4 km/h 3.2 km/h 61% 0 mm 0.00 W/m2
03:49 -3.3 °C -9.5 °C 1024.9 hPa NNW 9.3 km/h 3.5 km/h 62% 0 mm 0.00 W/m2
03:54 -3.3 °C -9.6 °C 1024.9 hPa NW 7.4 km/h 5.1 km/h 62% 0 mm 0.00 W/m2
03:59 -3.4 °C -9.6 °C 1024.9 hPa NNW 9.3 km/h 5.6 km/h 62% 0 mm 0.00 W/m2
04:04 -3.4 °C -9.4 °C 1024.9 hPa NNW 7.4 km/h 5.6 km/h 63% 0 mm 0.00 W/m2
04:09 -3.4 °C -9.4 °C 1024.9 hPa North 7.4 km/h 6.9 km/h 63% 0 mm 0.00 W/m2
04:14 -3.4 °C -9.4 °C 1024.9 hPa NW 7.4 km/h 5.3 km/h 63% 0 mm 0.00 W/m2
04:19 -3.4 °C -9.4 °C 1024.9 hPa NNW 4.5 km/h 5.8 km/h 63% 0 mm 0.00 W/m2
04:24 -3.5 °C -9.3 °C 1024.9 hPa NNW 3.7 km/h 3.2 km/h 64% 0 mm 0.00 W/m2
04:29 -3.5 °C -9.3 °C 1024.9 hPa NW 7.4 km/h 3.2 km/h 64% 0 mm 0.00 W/m2
04:34 -3.5 °C -9.3 °C 1024.9 hPa NNW 4.5 km/h 2.9 km/h 64% 0 mm 0.00 W/m2
04:39 -3.5 °C -9.3 °C 1024.9 hPa NW 9.3 km/h 6.8 km/h 64% 0 mm 0.00 W/m2
04:44 -3.5 °C -9.3 °C 1024.9 hPa NNW 3.7 km/h 6 km/h 64% 0 mm 0.00 W/m2
04:49 -3.5 °C -9.3 °C 1024.9 hPa NNW 7.4 km/h 6.8 km/h 64% 0 mm 0.00 W/m2
04:54 -3.5 °C -9.1 °C 1024.9 hPa NW 9 km/h 4.7 km/h 65% 0 mm 0.00 W/m2
04:59 -3.5 °C -9.1 °C 1025.3 hPa NNW 9.3 km/h 4.7 km/h 65% 0 mm 0.00 W/m2
05:04 -3.5 °C -9.1 °C 1025.3 hPa NNW 11.1 km/h 5.3 km/h 65% 0 mm 0.00 W/m2
05:09 -3.6 °C -9.2 °C 1025.3 hPa NNW 9.3 km/h 6.6 km/h 65% 0 mm 0.00 W/m2
05:14 -3.6 °C -9.2 °C 1025.3 hPa NW 11.1 km/h 3.7 km/h 65% 0 mm 0.00 W/m2
05:19 -3.6 °C -9.2 °C 1025.3 hPa NW 9.3 km/h 6.9 km/h 65% 0 mm 0.00 W/m2
05:24 -3.6 °C -9.2 °C 1025.6 hPa NNW 3.7 km/h 5.1 km/h 65% 0 mm 0.00 W/m2
05:29 -3.6 °C -9.2 °C 1025.6 hPa NW 9.3 km/h 7.7 km/h 65% 0 mm 0.00 W/m2
05:34 -3.6 °C -9 °C 1025.6 hPa NNE 7.4 km/h 6.9 km/h 66% 0 mm 0.00 W/m2
05:39 -3.6 °C -9 °C 1025.6 hPa NW 9.3 km/h 6.6 km/h 66% 0 mm 0.00 W/m2
05:44 -3.6 °C -9 °C 1026 hPa NW 9.3 km/h 5 km/h 66% 0 mm 0.00 W/m2
05:49 -3.6 °C -9 °C 1026 hPa NW 9.3 km/h 7.4 km/h 66% 0 mm 0.00 W/m2
05:54 -3.6 °C -9 °C 1026 hPa NW 3.7 km/h 3.1 km/h 66% 0 mm 0.00 W/m2
05:59 -3.6 °C -9 °C 1026 hPa West 9.3 km/h 6.4 km/h 66% 0 mm 0.00 W/m2
06:04 -3.5 °C -9.1 °C 1026 hPa NNW 7.4 km/h 3.5 km/h 65% 0 mm 0.00 W/m2
06:09 -3.5 °C -9.1 °C 1026 hPa NNW 6.8 km/h 4.7 km/h 65% 0 mm 0.00 W/m2
06:14 -3.4 °C -9.1 °C 1026.3 hPa NNW 9.3 km/h 6.3 km/h 65% 0 mm 0.00 W/m2
06:19 -3.4 °C -9.1 °C 1026.3 hPa NW 3.7 km/h 4 km/h 65% 0 mm 0.00 W/m2
06:24 -3.4 °C -9.3 °C 1026.6 hPa West 9.3 km/h 0.5 km/h 64% 0 mm 0.00 W/m2
06:29 -3.4 °C -9.3 °C 1026.6 hPa WNW 3.7 km/h 3.7 km/h 64% 0 mm 0.00 W/m2
06:34 -3.4 °C -9.4 °C 1026.6 hPa NW 3.7 km/h 2.1 km/h 63% 0 mm 0.00 W/m2
06:39 -3.4 °C -9.4 °C 1026.6 hPa NNW 3.7 km/h 2.7 km/h 63% 0 mm 0.00 W/m2
06:44 -3.4 °C -9.4 °C 1027 hPa NNW 3.7 km/h 1.9 km/h 63% 0 mm 0.00 W/m2
06:49 -3.4 °C -9.7 °C 1027 hPa NW 3.7 km/h 2.4 km/h 62% 0 mm 0.00 W/m2
06:54 -3.4 °C -9.8 °C 1027 hPa NNW 7.4 km/h 3.9 km/h 61% 0 mm 0.00 W/m2
06:59 -3.4 °C -9.8 °C 1027.3 hPa WNW 7.4 km/h 0.2 km/h 61% 0 mm 0.00 W/m2
07:04 -3.3 °C -10 °C 1027.3 hPa NNW 7.4 km/h 3.4 km/h 60% 0 mm 0.00 W/m2 CLR
07:09 -3.3 °C -10 °C 1027.3 hPa NW 3.7 km/h 3.1 km/h 60% 0 mm 0.00 W/m2 CLR
07:14 -3.3 °C -10 °C 1027.7 hPa West 1.9 km/h 0.8 km/h 60% 0 mm 0.00 W/m2 CLR
07:19 -3.3 °C -10.2 °C 1027.7 hPa WNW 1.9 km/h 0.2 km/h 59% 0 mm 0.00 W/m2 CLR
07:24 -3.3 °C -10.2 °C 1027.7 hPa NW 7.4 km/h 2.6 km/h 59% 0 mm 0.00 W/m2 CLR
07:29 -3.3 °C -10.2 °C 1027.7 hPa NW 3.7 km/h 1 km/h 59% 0 mm 5.00 W/m2 CLR
07:34 -3.3 °C -10.2 °C 1028 hPa NW 2.3 km/h 1 km/h 59% 0 mm 7.00 W/m2 CLR
07:39 -3.3 °C -10.2 °C 1028 hPa WNW 1.9 km/h 0.2 km/h 59% 0 mm 7.00 W/m2 CLR
07:44 -3.3 °C -10.4 °C 1028.3 hPa NW 7.4 km/h 3.1 km/h 58% 0 mm 9.00 W/m2 CLR
07:49 -3.3 °C -10.3 °C 1028.3 hPa NW 1.9 km/h 2.3 km/h 58% 0 mm 9.00 W/m2 CLR
07:54 -3.3 °C -10.3 °C 1028.3 hPa NW 3.7 km/h 1.3 km/h 58% 0 mm 11.00 W/m2 CLR
07:59 -3.2 °C -10.3 °C 1028.7 hPa NW 2.3 km/h 1.4 km/h 58% 0 mm 12.00 W/m2 CLR
08:04 -3.2 °C -10.3 °C 1028.7 hPa NW 2.3 km/h 1.3 km/h 58% 0 mm 12.00 W/m2 CLR
08:09 -3.2 °C -10.4 °C 1028.7 hPa NNW 2.3 km/h 1.3 km/h 57% 0 mm 12.00 W/m2 CLR
08:14 -3.1 °C -10.4 °C 1028.7 hPa Calm     57% 0 mm 14.00 W/m2 CLR
08:19 -2.9 °C -10.5 °C 1029 hPa Calm     56% 0 mm 14.00 W/m2 CLR
08:24 -2.8 °C -10.6 °C 1029 hPa Calm     55% 0 mm 16.00 W/m2 CLR
08:29 -2.7 °C -10.4 °C 1029 hPa Calm     55% 0 mm 16.00 W/m2 CLR
08:34 -2.4 °C -10.7 °C 1029 hPa Calm   0.2 km/h 53% 0 mm 16.00 W/m2 CLR
08:39 -2.3 °C -11.1 °C 1029.3 hPa Calm     51% 0 mm 16.00 W/m2 CLR
08:44 -2.1 °C -11.3 °C 1029.3 hPa Calm     49% 0 mm 18.00 W/m2 CLR
08:49 -1.9 °C -11.4 °C 1029.3 hPa Calm   0.2 km/h 48% 0 mm 18.00 W/m2 CLR
08:54 -1.8 °C -11.9 °C 1029.7 hPa WSW 2.3 km/h 0.8 km/h 46% 0 mm 18.00 W/m2 CLR
08:59 -1.7 °C -12.1 °C 1029.7 hPa Calm     45% 0 mm 18.00 W/m2 CLR
09:04 -1.6 °C -12.2 °C 1029.7 hPa West 1.9 km/h   44% 0 mm 19.00 W/m2 OVC
09:09 -1.4 °C -12.4 °C 1029.7 hPa Calm     43% 0 mm 19.00 W/m2 OVC
09:14 -1.3 °C -12.6 °C 1029.7 hPa WSW 1.9 km/h   42% 0 mm 25.00 W/m2 OVC
09:19 -1.2 °C -12.5 °C 1029.7 hPa Calm     42% 0 mm 19.00 W/m2 OVC
09:24 -1.1 °C -12.7 °C 1029.7 hPa Calm     41% 0 mm 19.00 W/m2 OVC
09:28 -0.9 °C -12.6 °C 1030 hPa WSW 3.7 km/h   41% 0 mm 19.00 W/m2 OVC
09:49 -0.3 °C -12.9 °C 1030.4 hPa SW 1.9 km/h   38% 0 mm 21.00 W/m2 OVC
09:54 -0.2 °C -13.1 °C 1030.4 hPa SW 3.7 km/h   37% 0 mm 21.00 W/m2 OVC
09:59 -0.1 °C -13.3 °C 1030.4 hPa Calm     36% 0 mm 21.00 W/m2 OVC
10:04 0.1 °C -13.6 °C 1030.4 hPa Calm   0.2 km/h 35% 0 mm 21.00 W/m2 OVC
10:09 0.1 °C -15.1 °C 1030.4 hPa NW 3.7 km/h   31% 0 mm 21.00 W/m2 OVC
10:14 0.1 °C -15.8 °C 1030.4 hPa Calm     29% 0 mm 21.00 W/m2 OVC
10:19 0.2 °C -15.8 °C 1030.4 hPa Calm     29% 0 mm 21.00 W/m2 OVC
10:24 0.3 °C -15.7 °C 1030.4 hPa WNW 1.9 km/h   29% 0 mm 23.00 W/m2 OVC
10:29 0.3 °C -15.7 °C 1030.4 hPa WSW 3.7 km/h 0.2 km/h 29% 0 mm 23.00 W/m2 OVC
10:34 0.4 °C -15.2 °C 1030.4 hPa Calm     30% 0 mm 23.00 W/m2 OVC
10:39 0.6 °C -15.4 °C 1030.4 hPa WNW 1.9 km/h 0.3 km/h 29% 0 mm 23.00 W/m2 OVC
10:44 0.6 °C -15.4 °C 1030.4 hPa SW 1.9 km/h   29% 0 mm 23.00 W/m2 OVC
10:49 0.5 °C -15.9 °C 1030.4 hPa Calm     28% 0 mm 23.00 W/m2 OVC
10:54 0.5 °C -15.9 °C 1030.4 hPa West 3.7 km/h 0.5 km/h 28% 0 mm 25.00 W/m2 OVC
10:59 0.5 °C -15.9 °C 1030.4 hPa West 1.9 km/h   28% 0 mm 25.00 W/m2 OVC
11:04 0.6 °C -16.3 °C 1030.4 hPa Calm     27% 0 mm 25.00 W/m2 OVC
11:09 0.7 °C -16.2 °C 1030.4 hPa Calm   0.2 km/h 27% 0 mm 25.00 W/m2 OVC
11:14 0.7 °C -16.2 °C 1030.4 hPa Calm     27% 0 mm 25.00 W/m2 OVC
11:19 0.9 °C -16 °C 1030.7 hPa Calm     27% 0 mm 25.00 W/m2 OVC
11:24 1 °C -15.9 °C 1030.4 hPa Calm     27% 0 mm 25.00 W/m2 OVC
11:29 1.1 °C -15.8 °C 1030.4 hPa Calm     27% 0 mm 26.00 W/m2 OVC
11:34 1.3 °C -15.7 °C 1030.4 hPa Calm     27% 0 mm 26.00 W/m2 OVC
11:39 1.3 °C -16.6 °C 1030.4 hPa NNW 1.9 km/h   25% 0 mm 26.00 W/m2 OVC
11:44 1.2 °C -16.7 °C 1030.7 hPa Calm     25% 0 mm 26.00 W/m2 OVC
11:49 1.2 °C -16.7 °C 1030.7 hPa North 3.7 km/h 0.6 km/h 25% 0 mm 26.00 W/m2 OVC
11:54 1 °C -16.4 °C 1030.7 hPa Calm     26% 0 mm 28.00 W/m2 OVC
11:59 1.1 °C -16.3 °C 1030.7 hPa Calm   0.2 km/h 26% 0 mm 28.00 W/m2 OVC
12:04 1.2 °C -14.1 °C 1030.7 hPa Calm     31% 0 mm 28.00 W/m2 OVC
12:09 1.2 °C -13.7 °C 1030.7 hPa SW 1.9 km/h 0.2 km/h 32% 0 mm 28.00 W/m2 OVC
12:14 1.4 °C -12.8 °C 1030.7 hPa SW 1.9 km/h 0.5 km/h 34% 0 mm 28.00 W/m2 OVC
12:19 1.5 °C -12.3 °C 1030.7 hPa Calm   1.1 km/h 35% 0 mm 28.00 W/m2 OVC
12:24 1.6 °C -12.9 °C 1030.4 hPa South 1.9 km/h   33% 0 mm 30.00 W/m2 OVC
12:29 1.7 °C -12.8 °C 1030.7 hPa South 2.3 km/h 1.8 km/h 33% 0 mm 30.00 W/m2 OVC
12:34 1.8 °C -13.2 °C 1030.7 hPa South 3.7 km/h 1.6 km/h 32% 0 mm 30.00 W/m2 OVC
12:39 1.7 °C -13.3 °C 1030.4 hPa South 1.9 km/h 1.1 km/h 32% 0 mm 30.00 W/m2 OVC
12:44 1.4 °C -12.7 °C 1030.4 hPa South 3.7 km/h 1.4 km/h 34% 0 mm 30.00 W/m2 OVC
12:49 1.3 °C -12.2 °C 1030.4 hPa South 1.9 km/h   36% 0 mm 32.00 W/m2 OVC
12:54 1.2 °C -12.9 °C 1030.4 hPa South 2.3 km/h 2.4 km/h 34% 0 mm 33.00 W/m2 OVC
12:59 1.1 °C -13.8 °C 1030.4 hPa SSW 3.7 km/h 2.4 km/h 32% 0 mm 33.00 W/m2 OVC
13:04 1.1 °C -13.8 °C 1030.4 hPa South 3.7 km/h 1.9 km/h 32% 0 mm 33.00 W/m2 OVC
13:09 1.1 °C -14.2 °C 1030.4 hPa South 2.3 km/h 2.7 km/h 31% 0 mm 35.00 W/m2 OVC
13:14 1.2 °C -14.1 °C 1030 hPa South 2.3 km/h 0.2 km/h 31% 0 mm 35.00 W/m2 OVC
13:19 1.3 °C -13.6 °C 1030.4 hPa SSW 4.5 km/h 1.4 km/h 32% 0 mm 35.00 W/m2 OVC
13:24 1.4 °C -12.4 °C 1030 hPa South 2.3 km/h 1 km/h 35% 0 mm 37.00 W/m2 OVC
13:29 1.6 °C -11.6 °C 1030 hPa South 1.9 km/h   37% 0 mm 37.00 W/m2 OVC
13:34 1.7 °C -11.8 °C 1030 hPa South 1.9 km/h 0.2 km/h 36% 0 mm 37.00 W/m2 OVC
13:39 1.9 °C -12.3 °C 1030 hPa South 3.7 km/h 2.6 km/h 34% 0 mm 37.00 W/m2 OVC
13:44 2.1 °C -10.8 °C 1030 hPa South 3.7 km/h 1.6 km/h 38% 0 mm 39.00 W/m2 OVC
13:49 2.2 °C -11 °C 1030 hPa South 2.3 km/h 1.4 km/h 37% 0 mm 39.00 W/m2 OVC
13:54 2.2 °C -10.3 °C 1030 hPa South 2.3 km/h 0.8 km/h 39% 0 mm 39.00 W/m2 OVC
13:59 2.3 °C -10.6 °C 1030 hPa South 3.7 km/h 1.1 km/h 38% 0 mm 40.00 W/m2 OVC
14:04 2.6 °C -10 °C 1029.7 hPa South 3.7 km/h 0.8 km/h 39% 0 mm 40.00 W/m2 OVC
14:09 3.1 °C -9.8 °C 1030 hPa South 2.3 km/h 1.6 km/h 38% 0 mm 53.00 W/m2 OVC
14:14 3.6 °C -10.1 °C 1029.7 hPa SSE 2.3 km/h 0.3 km/h 36% 0 mm 756.00 W/m2 OVC
14:19 3.6 °C -10.4 °C 1029.7 hPa West 3.7 km/h 0.3 km/h 35% 0 mm 754.00 W/m2 OVC
14:24 3.7 °C -10.8 °C 1029.7 hPa SSE 4.5 km/h 2.1 km/h 34% 0 mm 751.00 W/m2 OVC
14:29 3.6 °C -11.2 °C 1029.7 hPa South 2.3 km/h 0.5 km/h 33% 0 mm 751.00 W/m2 OVC
14:34 3.6 °C -10.5 °C 1029.7 hPa South 3.7 km/h 2.9 km/h 35% 0 mm 745.00 W/m2 OVC
14:39 3.8 °C -9.9 °C 1029.7 hPa South 6.8 km/h 3.1 km/h 36% 0 mm 737.00 W/m2 OVC
High Park Village Arhives